createdAt,value
2017-07-31T00:01:08.168Z,81.25
2017-07-31T00:03:35.621Z,80.98
2017-07-31T00:06:03.144Z,79.62
2017-07-31T00:08:30.620Z,79.32
2017-07-31T00:10:58.096Z,79.65
2017-07-31T00:13:25.631Z,80.53
2017-07-31T00:15:53.197Z,79.68
2017-07-31T00:18:20.644Z,79.45
2017-07-31T00:20:48.115Z,78.35
2017-07-31T00:23:15.663Z,78.76
2017-07-31T00:25:44.691Z,78.65
2017-07-31T00:28:12.163Z,78.96
2017-07-31T00:30:39.623Z,78.73
2017-07-31T00:33:07.107Z,79.59
2017-07-31T00:35:34.591Z,79.36
2017-07-31T00:38:04.236Z,79.81
2017-07-31T00:40:31.694Z,79.60
2017-07-31T00:42:59.205Z,80.18
2017-07-31T00:45:26.660Z,79.79
2017-07-31T00:47:54.133Z,80.20
2017-07-31T00:50:21.679Z,79.58
2017-07-31T00:52:49.240Z,78.90
2017-07-31T00:55:16.793Z,80.94
2017-07-31T00:57:44.348Z,78.99
2017-07-31T01:00:11.820Z,79.21
2017-07-31T01:02:39.301Z,79.10
2017-07-31T01:05:06.816Z,78.74
2017-07-31T01:07:34.385Z,79.38
2017-07-31T01:10:01.852Z,79.45
2017-07-31T01:12:29.392Z,80.52
2017-07-31T01:14:56.873Z,80.65
2017-07-31T01:17:24.422Z,80.02
2017-07-31T01:19:51.907Z,79.96
2017-07-31T01:22:19.355Z,80.09
2017-07-31T01:24:46.889Z,80.28
2017-07-31T01:27:14.361Z,80.38
2017-07-31T01:29:41.921Z,80.57
2017-07-31T01:32:09.465Z,80.39
2017-07-31T01:34:37.024Z,80.17
2017-07-31T01:37:06.425Z,81.58
2017-07-31T01:39:33.919Z,81.13
2017-07-31T01:42:01.445Z,81.01
2017-07-31T01:44:28.968Z,80.85
2017-07-31T01:46:56.448Z,81.08
2017-07-31T01:49:23.976Z,80.97
2017-07-31T01:51:51.429Z,81.18
2017-07-31T01:54:18.928Z,80.87
2017-07-31T01:56:46.480Z,80.44
2017-07-31T01:59:13.960Z,80.81
2017-07-31T02:01:42.424Z,81.46
2017-07-31T02:04:10.010Z,81.54
2017-07-31T02:06:37.485Z,81.65
2017-07-31T02:09:04.969Z,81.24
2017-07-31T02:11:32.449Z,81.03
2017-07-31T02:13:59.946Z,80.65
2017-07-31T02:16:27.473Z,80.28
2017-07-31T02:18:55.019Z,81.16
2017-07-31T02:21:22.484Z,83.02
2017-07-31T02:23:49.945Z,83.91
2017-07-31T02:26:18.517Z,83.57
2017-07-31T02:28:45.978Z,84.38
2017-07-31T02:31:13.455Z,83.99
2017-07-31T02:33:40.915Z,83.65
2017-07-31T02:36:08.389Z,82.86
2017-07-31T02:38:37.635Z,82.85
2017-07-31T02:41:05.196Z,82.62
2017-07-31T02:43:32.654Z,82.70
2017-07-31T02:46:00.161Z,82.47
2017-07-31T02:48:27.628Z,82.81
2017-07-31T02:50:55.137Z,83.49
2017-07-31T02:53:22.620Z,82.53
2017-07-31T02:55:50.072Z,82.35
2017-07-31T02:58:17.591Z,81.88
2017-07-31T03:00:45.057Z,81.52
2017-07-31T03:03:12.532Z,81.69
2017-07-31T03:05:40.073Z,81.87
2017-07-31T03:08:07.630Z,82.23
2017-07-31T03:10:35.089Z,82.64
2017-07-31T03:13:02.577Z,83.62
2017-07-31T03:15:30.151Z,83.76
2017-07-31T03:17:57.631Z,82.64
2017-07-31T03:20:25.125Z,81.05
2017-07-31T03:22:52.677Z,80.74
2017-07-31T03:25:20.131Z,80.82
2017-07-31T03:27:47.623Z,81.43
2017-07-31T03:30:15.453Z,81.31
2017-07-31T03:32:42.928Z,81.77
2017-07-31T03:35:10.472Z,81.73
2017-07-31T03:37:38.125Z,82.09
2017-07-31T03:40:05.583Z,82.22
2017-07-31T03:42:33.031Z,81.52
2017-07-31T03:45:00.504Z,81.36
2017-07-31T03:47:27.956Z,82.05
2017-07-31T03:49:55.755Z,81.64
2017-07-31T03:52:23.243Z,80.47
2017-07-31T03:54:50.720Z,80.52
2017-07-31T03:57:18.167Z,80.52
2017-07-31T03:59:45.757Z,81.49
2017-07-31T04:02:13.418Z,81.26
2017-07-31T04:04:40.959Z,79.58
2017-07-31T04:07:08.418Z,79.18
2017-07-31T04:09:35.879Z,80.08
2017-07-31T04:12:03.328Z,81.26
2017-07-31T04:14:30.848Z,82.12
2017-07-31T04:16:58.310Z,81.81
2017-07-31T04:19:25.804Z,79.08
2017-07-31T04:21:53.252Z,80.07
2017-07-31T04:24:20.720Z,80.99
2017-07-31T04:26:48.280Z,79.92
2017-07-31T04:29:15.741Z,79.14
2017-07-31T04:31:43.206Z,80.38
2017-07-31T04:34:10.772Z,81.99
2017-07-31T04:36:38.234Z,82.07
2017-07-31T04:39:05.814Z,82.31
2017-07-31T04:41:33.337Z,82.95
2017-07-31T04:44:00.883Z,82.59
2017-07-31T04:46:28.369Z,81.03
2017-07-31T04:48:55.834Z,81.76
2017-07-31T04:51:23.314Z,81.76
2017-07-31T04:53:50.811Z,82.35
2017-07-31T04:56:18.284Z,81.80
2017-07-31T04:58:45.740Z,81.79
2017-07-31T05:01:13.487Z,82.98
2017-07-31T05:03:40.996Z,83.57
2017-07-31T05:06:08.453Z,80.16
2017-07-31T05:08:35.955Z,77.11
2017-07-31T05:11:03.403Z,74.69
2017-07-31T05:13:30.962Z,73.48
2017-07-31T05:15:58.427Z,71.88
2017-07-31T05:18:25.925Z,71.53
2017-07-31T05:20:53.447Z,72.70
2017-07-31T05:23:20.932Z,74.30
2017-07-31T05:25:49.043Z,74.88
2017-07-31T05:28:16.516Z,75.80
2017-07-31T05:30:43.955Z,75.67
2017-07-31T05:33:11.437Z,76.32
2017-07-31T05:35:38.893Z,76.09
2017-07-31T05:38:06.600Z,75.77
2017-07-31T05:40:34.145Z,76.49
2017-07-31T05:43:01.658Z,75.47
2017-07-31T05:45:29.103Z,73.47
2017-07-31T05:47:56.551Z,71.67
2017-07-31T05:50:24.157Z,69.95
2017-07-31T05:52:51.612Z,68.30
2017-07-31T05:55:19.089Z,67.37
2017-07-31T05:57:46.535Z,66.58
2017-07-31T06:00:14.017Z,66.79
2017-07-31T06:02:41.560Z,66.49
2017-07-31T06:05:09.129Z,65.79
2017-07-31T06:07:36.588Z,64.79
2017-07-31T06:10:04.059Z,64.76
2017-07-31T06:12:31.520Z,66.17
2017-07-31T06:14:59.029Z,67.99
2017-07-31T06:17:26.591Z,66.32
2017-07-31T06:19:54.157Z,67.45
2017-07-31T06:22:21.700Z,66.27
2017-07-31T06:24:49.178Z,64.97
2017-07-31T06:27:16.631Z,65.06
2017-07-31T06:29:44.175Z,64.86
2017-07-31T06:32:11.620Z,64.65
2017-07-31T06:34:39.239Z,64.29
2017-07-31T06:37:06.755Z,64.39
2017-07-31T06:39:34.306Z,64.02
2017-07-31T06:42:01.942Z,63.10
2017-07-31T06:44:29.396Z,63.68
2017-07-31T06:46:56.875Z,63.03
2017-07-31T06:49:24.324Z,63.77
2017-07-31T06:51:51.804Z,65.02
2017-07-31T06:54:19.361Z,64.87
2017-07-31T06:56:46.908Z,63.74
2017-07-31T06:59:14.477Z,64.00
2017-07-31T07:01:42.035Z,63.83
2017-07-31T07:04:09.584Z,65.63
2017-07-31T07:06:37.139Z,64.65
2017-07-31T07:09:04.583Z,64.36
2017-07-31T07:11:32.068Z,64.51
2017-07-31T07:13:59.620Z,64.02
2017-07-31T07:16:27.171Z,64.47
2017-07-31T07:18:54.632Z,63.85
2017-07-31T07:21:22.139Z,63.37
2017-07-31T07:23:49.641Z,63.37
2017-07-31T07:26:17.094Z,63.09
2017-07-31T07:28:44.567Z,62.93
2017-07-31T07:31:12.042Z,62.20
2017-07-31T07:33:39.529Z,61.30
2017-07-31T07:36:06.970Z,60.52
2017-07-31T07:38:34.449Z,60.54
2017-07-31T07:41:01.943Z,59.89
2017-07-31T07:43:29.415Z,60.51
2017-07-31T07:45:56.949Z,59.49
2017-07-31T07:48:24.425Z,59.32
2017-07-31T07:50:52.747Z,58.99
2017-07-31T07:53:20.211Z,58.38
2017-07-31T07:55:47.713Z,57.52
2017-07-31T07:58:15.270Z,58.37
2017-07-31T08:00:42.724Z,59.28
2017-07-31T08:03:10.382Z,59.05
2017-07-31T08:05:37.860Z,59.64
2017-07-31T08:08:05.321Z,58.21
2017-07-31T08:10:32.833Z,57.83
2017-07-31T08:13:00.317Z,58.05
2017-07-31T08:15:27.870Z,57.23
2017-07-31T08:17:55.310Z,56.52
2017-07-31T08:20:22.785Z,57.20
2017-07-31T08:22:50.246Z,55.13
2017-07-31T08:25:17.725Z,55.85
2017-07-31T08:27:45.173Z,56.18
2017-07-31T08:30:12.640Z,55.91
2017-07-31T08:32:40.189Z,55.64
2017-07-31T08:35:07.680Z,56.46
2017-07-31T08:37:35.145Z,57.17
2017-07-31T08:40:02.643Z,57.09
2017-07-31T08:42:30.200Z,56.91
2017-07-31T08:44:57.647Z,56.02
2017-07-31T08:47:25.128Z,55.50
2017-07-31T08:49:52.716Z,54.05
2017-07-31T08:52:20.226Z,52.77
2017-07-31T08:54:47.831Z,53.76
2017-07-31T08:57:15.365Z,51.95
2017-07-31T08:59:42.819Z,51.50
2017-07-31T09:02:10.312Z,52.07
2017-07-31T09:04:37.777Z,51.08
2017-07-31T09:07:05.257Z,51.55
2017-07-31T09:09:32.749Z,52.13
2017-07-31T09:12:00.282Z,49.35
2017-07-31T09:14:27.773Z,48.09
2017-07-31T09:16:55.310Z,49.56
2017-07-31T09:19:22.873Z,50.84
2017-07-31T09:21:50.386Z,50.65
2017-07-31T09:24:17.850Z,50.83
2017-07-31T09:26:45.330Z,51.34
2017-07-31T09:29:12.813Z,51.21
2017-07-31T09:31:40.292Z,49.61
2017-07-31T09:34:07.847Z,49.76
2017-07-31T09:36:35.306Z,50.08
2017-07-31T09:39:02.801Z,49.42
2017-07-31T09:41:30.284Z,49.72
2017-07-31T09:43:57.771Z,48.95
2017-07-31T09:46:25.288Z,47.44
2017-07-31T09:48:52.864Z,47.75
2017-07-31T09:51:20.320Z,47.24
2017-07-31T09:53:47.805Z,46.73
2017-07-31T09:56:15.269Z,46.94
2017-07-31T09:58:42.735Z,47.26
2017-07-31T10:01:10.599Z,46.27
2017-07-31T10:03:38.076Z,45.25
2017-07-31T10:06:05.535Z,44.93
2017-07-31T10:08:33.008Z,45.29
2017-07-31T10:11:00.455Z,44.73
2017-07-31T10:13:27.908Z,45.14
2017-07-31T10:15:55.384Z,44.90
2017-07-31T10:18:22.847Z,44.54
2017-07-31T10:20:50.314Z,44.94
2017-07-31T10:23:17.793Z,45.00
2017-07-31T10:25:45.528Z,44.71
2017-07-31T10:28:13.033Z,44.33
2017-07-31T10:30:40.509Z,44.24
2017-07-31T10:33:07.986Z,44.20
2017-07-31T10:35:35.461Z,43.48
2017-07-31T10:38:03.015Z,43.69
2017-07-31T10:40:30.483Z,44.94
2017-07-31T10:42:57.944Z,44.56
2017-07-31T10:45:25.473Z,45.30
2017-07-31T10:47:53.043Z,45.38
2017-07-31T10:50:20.557Z,45.50
2017-07-31T10:52:48.036Z,44.77
2017-07-31T10:55:15.492Z,45.42
2017-07-31T10:57:42.955Z,45.07
2017-07-31T11:00:10.411Z,45.32
2017-07-31T11:02:37.991Z,45.80
2017-07-31T11:05:05.561Z,44.86
2017-07-31T11:07:33.057Z,45.89
2017-07-31T11:10:00.561Z,45.30
2017-07-31T11:12:28.136Z,45.66
2017-07-31T11:14:56.419Z,45.64
2017-07-31T11:17:23.904Z,45.72
2017-07-31T11:19:51.357Z,45.64
2017-07-31T11:22:18.867Z,44.97
2017-07-31T11:24:46.433Z,45.43
2017-07-31T11:27:13.924Z,45.94
2017-07-31T11:32:15.109Z,44.37
2017-07-31T11:34:42.586Z,45.37
2017-07-31T11:37:10.895Z,44.94
2017-07-31T11:39:38.399Z,45.04
2017-07-31T11:42:05.872Z,45.33
2017-07-31T11:44:33.342Z,45.52
2017-07-31T11:47:00.892Z,45.83
2017-07-31T11:49:28.456Z,45.80
2017-07-31T11:51:55.913Z,46.10
2017-07-31T11:54:23.396Z,45.86
2017-07-31T11:56:50.854Z,45.71
2017-07-31T11:59:18.433Z,45.84
2017-07-31T12:01:45.940Z,46.12
2017-07-31T12:04:13.551Z,45.64
2017-07-31T12:06:41.071Z,45.52
2017-07-31T12:09:08.626Z,46.27
2017-07-31T12:11:36.104Z,46.72
2017-07-31T12:14:03.683Z,45.79
2017-07-31T12:16:31.168Z,45.95
2017-07-31T12:18:58.644Z,46.07
2017-07-31T12:21:26.111Z,46.27
2017-07-31T12:23:53.665Z,45.26
2017-07-31T12:26:21.232Z,45.13
2017-07-31T12:28:48.697Z,45.45
2017-07-31T12:31:16.189Z,45.13
2017-07-31T12:33:43.635Z,45.28
2017-07-31T12:36:11.245Z,45.35
2017-07-31T12:38:38.705Z,45.22
2017-07-31T12:41:06.215Z,46.90
2017-07-31T12:43:33.700Z,45.98
2017-07-31T12:46:01.196Z,45.34
2017-07-31T12:48:28.945Z,45.39
2017-07-31T12:50:56.405Z,45.79
2017-07-31T12:53:24.009Z,45.54
2017-07-31T12:55:51.467Z,45.30
2017-07-31T12:58:18.984Z,45.98
2017-07-31T13:00:46.511Z,44.44
2017-07-31T13:03:14.107Z,45.26
2017-07-31T13:05:41.565Z,45.00
2017-07-31T13:08:09.104Z,45.21
2017-07-31T13:10:36.580Z,45.12
2017-07-31T13:13:04.061Z,44.15
2017-07-31T13:15:31.524Z,43.82
2017-07-31T13:17:58.980Z,43.68
2017-07-31T13:20:26.447Z,42.96
2017-07-31T13:22:54.109Z,43.19
2017-07-31T13:25:21.596Z,43.18
2017-07-31T13:27:49.115Z,44.27
2017-07-31T13:30:16.595Z,44.32
2017-07-31T13:32:44.060Z,44.99
2017-07-31T13:35:11.559Z,43.60
2017-07-31T13:37:39.093Z,45.66
2017-07-31T13:40:06.661Z,45.80
2017-07-31T13:42:34.239Z,45.96
2017-07-31T13:45:01.727Z,45.80
2017-07-31T13:47:29.642Z,47.39
2017-07-31T13:49:57.137Z,46.35
2017-07-31T13:52:24.665Z,46.35
2017-07-31T13:54:52.221Z,45.27
2017-07-31T13:57:19.773Z,45.74
2017-07-31T13:59:47.334Z,46.35
2017-07-31T14:02:14.849Z,45.68
2017-07-31T14:04:42.341Z,45.06
2017-07-31T14:07:09.831Z,45.59
2017-07-31T14:09:37.368Z,44.33
2017-07-31T14:12:04.925Z,45.19
2017-07-31T14:14:32.382Z,45.66
2017-07-31T14:16:59.927Z,45.14
2017-07-31T14:19:27.386Z,45.55
2017-07-31T14:21:54.879Z,45.99
2017-07-31T14:24:22.394Z,46.56
2017-07-31T14:26:49.878Z,45.92
2017-07-31T14:29:17.328Z,47.00
2017-07-31T14:31:44.888Z,46.05
2017-07-31T14:34:12.771Z,47.93
2017-07-31T14:36:40.304Z,48.01
2017-07-31T14:39:07.751Z,46.65
2017-07-31T14:41:35.220Z,46.46
2017-07-31T14:44:02.671Z,48.13
2017-07-31T14:46:30.372Z,49.32
2017-07-31T14:48:57.883Z,49.16
2017-07-31T14:51:25.356Z,48.16
2017-07-31T14:53:52.910Z,47.49
2017-07-31T14:56:20.483Z,47.32
2017-07-31T14:58:48.020Z,48.70
2017-07-31T15:01:15.585Z,47.75
2017-07-31T15:03:43.064Z,48.29
2017-07-31T15:06:10.594Z,48.57
2017-07-31T15:08:38.088Z,49.29
2017-07-31T15:11:05.609Z,50.26
2017-07-31T15:13:33.079Z,49.74
2017-07-31T15:16:00.530Z,52.38
2017-07-31T15:18:27.995Z,59.35
2017-07-31T15:20:56.223Z,60.99
2017-07-31T15:23:23.713Z,62.35
2017-07-31T15:25:51.173Z,62.52
2017-07-31T15:28:18.664Z,61.57
2017-07-31T15:30:46.183Z,61.63
2017-07-31T15:33:13.718Z,61.60
2017-07-31T15:35:41.300Z,65.83
2017-07-31T15:38:08.759Z,63.63
2017-07-31T15:40:36.315Z,63.56
2017-07-31T15:43:03.764Z,66.19
2017-07-31T15:45:31.236Z,64.13
2017-07-31T15:47:58.962Z,62.86
2017-07-31T15:50:26.438Z,63.57
2017-07-31T15:52:53.909Z,63.92
2017-07-31T15:55:21.398Z,63.08
2017-07-31T15:57:48.919Z,62.41
2017-07-31T16:00:16.387Z,62.85
2017-07-31T16:02:43.839Z,62.59
2017-07-31T16:05:11.335Z,62.21
2017-07-31T16:07:38.856Z,63.54
2017-07-31T16:10:06.342Z,62.92
2017-07-31T16:12:33.870Z,60.43
2017-07-31T16:15:01.404Z,61.26
2017-07-31T16:17:28.889Z,59.92
2017-07-31T16:19:56.533Z,60.78
2017-07-31T16:22:24.004Z,59.75
2017-07-31T16:24:51.533Z,60.55
2017-07-31T16:27:19.089Z,60.13
2017-07-31T16:29:46.580Z,60.34
2017-07-31T16:32:14.286Z,60.37
2017-07-31T16:34:41.741Z,61.00
2017-07-31T16:37:17.766Z,61.58
2017-07-31T16:39:45.309Z,60.70
2017-07-31T16:42:12.861Z,60.19
2017-07-31T16:44:48.213Z,59.76
2017-07-31T16:47:27.179Z,59.78
2017-07-31T16:49:54.644Z,60.53
2017-07-31T16:52:22.105Z,60.21
2017-07-31T16:54:49.601Z,60.36
2017-07-31T16:57:17.056Z,59.84
2017-07-31T16:59:44.528Z,59.34
2017-07-31T17:02:11.984Z,59.62
2017-07-31T17:04:39.691Z,59.72
2017-07-31T17:07:07.147Z,58.15
2017-07-31T17:09:34.651Z,57.44
2017-07-31T17:12:02.101Z,58.56
2017-07-31T17:14:29.567Z,58.19
2017-07-31T17:16:57.121Z,59.03
2017-07-31T17:19:24.685Z,58.67
2017-07-31T17:21:52.234Z,57.53
2017-07-31T17:24:19.792Z,58.72
2017-07-31T17:26:47.262Z,58.46
2017-07-31T17:29:18.023Z,58.75
2017-07-31T17:31:45.541Z,58.92
2017-07-31T17:34:13.035Z,59.18
2017-07-31T17:36:40.557Z,59.25
2017-07-31T17:39:08.032Z,59.94
2017-07-31T17:41:35.581Z,59.63
2017-07-31T17:44:03.040Z,59.60
2017-07-31T17:46:30.567Z,59.80
2017-07-31T17:48:58.039Z,60.16
2017-07-31T17:51:25.607Z,60.42
2017-07-31T17:53:53.086Z,60.77
2017-07-31T17:56:20.607Z,60.84
2017-07-31T17:58:48.076Z,59.46
2017-07-31T18:01:15.651Z,60.09
2017-07-31T18:03:43.099Z,60.29
2017-07-31T18:06:10.643Z,59.93
2017-07-31T18:08:38.121Z,60.88
2017-07-31T18:11:05.655Z,61.19
2017-07-31T18:13:33.119Z,60.23
2017-07-31T18:16:00.684Z,60.47
2017-07-31T18:18:28.248Z,61.13
2017-07-31T18:20:55.812Z,62.70
2017-07-31T18:23:23.362Z,64.08
2017-07-31T18:25:50.817Z,64.95
2017-07-31T18:28:18.301Z,65.50
2017-07-31T18:30:45.838Z,67.86
2017-07-31T18:33:13.390Z,68.72
2017-07-31T18:35:40.954Z,69.42
2017-07-31T18:38:08.503Z,69.70
2017-07-31T18:40:36.721Z,69.49
2017-07-31T18:43:04.219Z,69.51
2017-07-31T18:45:31.696Z,68.73
2017-07-31T18:47:59.251Z,69.40
2017-07-31T18:50:26.735Z,69.78
2017-07-31T18:52:54.578Z,68.10
2017-07-31T18:55:22.065Z,68.38
2017-07-31T18:57:49.523Z,69.47
2017-07-31T19:00:17.043Z,72.94
2017-07-31T19:02:44.554Z,72.43
2017-07-31T19:05:12.072Z,71.57
2017-07-31T19:07:39.549Z,70.01
2017-07-31T19:10:07.061Z,68.97
2017-07-31T19:12:34.544Z,69.82
2017-07-31T19:15:02.025Z,72.42
2017-07-31T19:17:29.479Z,74.59
2017-07-31T19:19:56.993Z,76.80
2017-07-31T19:22:24.449Z,79.63
2017-07-31T19:24:51.924Z,79.38
2017-07-31T19:27:19.481Z,79.32
2017-07-31T19:29:47.044Z,78.12
2017-07-31T19:32:14.525Z,77.92
2017-07-31T19:34:42.058Z,77.40
2017-07-31T19:37:09.611Z,77.33
2017-07-31T19:39:37.170Z,74.87
2017-07-31T19:42:04.643Z,75.12
2017-07-31T19:44:32.174Z,74.13
2017-07-31T19:46:59.639Z,74.05
2017-07-31T19:49:27.097Z,74.97
2017-07-31T19:51:54.851Z,74.97
2017-07-31T19:54:22.434Z,76.80
2017-07-31T19:56:49.929Z,77.45
2017-07-31T19:59:17.438Z,78.10
2017-07-31T20:01:44.993Z,78.25
2017-07-31T20:04:12.660Z,80.21
2017-07-31T20:06:40.111Z,80.01
2017-07-31T20:09:07.576Z,81.79
2017-07-31T20:11:35.029Z,82.21
2017-07-31T20:14:02.507Z,80.17
2017-07-31T20:16:30.225Z,80.78
2017-07-31T20:18:57.705Z,81.72
2017-07-31T20:21:25.253Z,81.44
2017-07-31T20:23:52.725Z,82.12
2017-07-31T20:26:20.271Z,82.09
2017-07-31T20:28:47.833Z,81.82
2017-07-31T20:31:15.393Z,81.03
2017-07-31T20:33:44.534Z,82.39
2017-07-31T20:36:11.988Z,81.02
2017-07-31T20:38:39.491Z,81.26
2017-07-31T20:41:06.939Z,80.97
2017-07-31T20:43:34.417Z,81.78
2017-07-31T20:46:01.929Z,81.02
2017-07-31T20:48:29.402Z,80.67
2017-07-31T20:50:56.932Z,80.48
2017-07-31T20:53:24.452Z,80.86
2017-07-31T20:55:51.929Z,81.02
2017-07-31T20:58:19.461Z,80.91
2017-07-31T21:00:47.012Z,80.29
2017-07-31T21:03:14.488Z,80.75
2017-07-31T21:05:42.395Z,81.30
2017-07-31T21:08:09.901Z,80.81
2017-07-31T21:10:38.319Z,81.34
2017-07-31T21:13:05.796Z,81.49
2017-07-31T21:15:33.341Z,82.04
2017-07-31T21:18:00.872Z,81.22
2017-07-31T21:20:28.332Z,80.33
2017-07-31T21:22:55.860Z,80.26
2017-07-31T21:25:23.317Z,80.56
2017-07-31T21:27:50.809Z,81.49
2017-07-31T21:30:18.383Z,82.83
2017-07-31T21:32:45.904Z,81.84
2017-07-31T21:35:13.386Z,81.38
2017-07-31T21:37:40.870Z,81.24
2017-07-31T21:40:08.377Z,81.83
2017-07-31T21:42:35.929Z,82.48
2017-07-31T21:45:03.387Z,82.24
2017-07-31T21:47:30.873Z,82.25
2017-07-31T21:49:58.324Z,82.30
2017-07-31T21:52:27.287Z,82.72
2017-07-31T21:54:54.741Z,82.37
2017-07-31T21:57:22.218Z,82.49
2017-07-31T21:59:49.682Z,81.37
2017-07-31T22:02:17.159Z,82.36
2017-07-31T22:04:44.632Z,82.44
2017-07-31T22:07:12.279Z,83.31
2017-07-31T22:09:39.783Z,82.74
2017-07-31T22:12:07.240Z,82.52
2017-07-31T22:14:34.798Z,81.32
2017-07-31T22:17:07.766Z,79.88
2017-07-31T22:19:35.278Z,80.13
2017-07-31T22:22:03.686Z,80.46
2017-07-31T22:24:31.181Z,80.27
2017-07-31T22:26:59.923Z,81.04
2017-07-31T22:29:27.427Z,82.11
2017-07-31T22:31:54.980Z,82.22
2017-07-31T22:34:22.470Z,82.82
2017-07-31T22:36:49.996Z,80.43
2017-07-31T22:39:17.499Z,79.36
2017-07-31T22:41:45.011Z,80.29
2017-07-31T22:44:12.491Z,80.38
2017-07-31T22:46:40.032Z,80.43
2017-07-31T22:49:07.590Z,82.70
2017-07-31T22:51:35.157Z,84.78
2017-07-31T22:54:02.620Z,84.95
2017-07-31T22:56:30.104Z,82.69
2017-07-31T22:58:57.621Z,82.12
2017-07-31T23:01:25.109Z,81.02
2017-07-31T23:03:52.692Z,80.39
2017-07-31T23:06:20.188Z,80.11
2017-07-31T23:08:47.748Z,79.36
2017-07-31T23:11:15.241Z,79.79
2017-07-31T23:13:42.732Z,81.52
2017-07-31T23:16:10.215Z,82.37
2017-07-31T23:18:37.831Z,83.47
2017-07-31T23:21:05.437Z,83.10
2017-07-31T23:23:33.005Z,83.08
2017-07-31T23:26:00.861Z,84.02
2017-07-31T23:28:28.400Z,84.30
2017-07-31T23:30:55.855Z,83.76
2017-07-31T23:33:23.353Z,82.35
2017-07-31T23:35:50.896Z,81.80
2017-07-31T23:38:18.462Z,81.01
2017-07-31T23:40:45.933Z,79.24
2017-07-31T23:43:13.430Z,79.59
2017-07-31T23:45:40.929Z,80.04
2017-07-31T23:48:08.485Z,81.60
2017-07-31T23:50:35.939Z,82.41
2017-07-31T23:53:03.552Z,82.05
2017-07-31T23:55:31.020Z,82.33
2017-07-31T23:57:58.514Z,82.23
